Airfield :
LOGIN :

Register | Disclaimer

   EN    FR    IT 

 










Legend :    VFR   Marginal VFR   IFR   Intensive IFR   Very Intensive IFR
Visi :
Ceiling :
>= 8 km
>= 3000ft
5 to 8 km
1000 to 3000 ft
1500m to 5 km
500 to 1000 ft
800 to 1500m
200 to 500 ft
< 800m
< 200 ft
Symbols :   Thunderstorms  Fog  Heavy snow  Heavy precipitations  Wind > 20 kt
SIGMETs :     Misc.  Thunderstorms  Icing  Turbulence  Mountain Waves  Volcanic Ashes







- Airport Elevation : 359 ft
- IATA code : BVA
- Download approach charts


LFOB - Beauvais

CURRENT METAR :
  • 210830Z AUTO 07007KT 050V110 9999 FEW023 18/12 Q1014 NOSIG

EXPIRED METARs :
  • 210800Z AUTO 07006KT 030V110 CAVOK 17/12 Q1014 NOSIG
  • 210730Z AUTO 06008KT 040V140 CAVOK 16/12 Q1014 NOSIG
  • 210700Z AUTO 05005KT CAVOK 15/12 Q1014 NOSIG
  • 210630Z AUTO 06006KT CAVOK 15/12 Q1014 NOSIG
  • 210600Z AUTO VRB02KT CAVOK 12/11 Q1014 NOSIG

TAF TAF LFOB
Valid from the 21 at 06:00 until the 22 at 06:00 UTC


210500Z 2106/2206 07005KT 9999 SCT040
PROB30
TEMPO 2113/2119 3000 TSRA BKN040CB
PROB40 2117/2119 36010KT
ATIS : +33 3 44 11 49 28
No reported NOTAMs for that airfield.



MET'MAP, your aeronautical weather chart ! - Copyright ORBIFLY December 2007 - Disclaimer

ORBIFLY MET'MAP TEAM :

Programming & Development : Alexandra Zaïnal
Concept & Development : Baudouin d'Aumeries
Co-Development & Prog : Marc-Olivier Méhu
Technical & hardware support : Manuel Goepfert

Contact : metmap@orbifly.com




SOURCES & CREDITS :

   NOAA